sensor_id;sensor_type;location;lat;lon;timestamp;P1;durP1;ratioP1;P2;durP2;ratioP2
35877;SDS011;21982;49.804;24.072;2022-12-10T00:01:54;35.47;;;18.50;;
35877;SDS011;21982;49.804;24.072;2022-12-10T00:04:19;33.40;;;20.48;;
35877;SDS011;21982;49.804;24.072;2022-12-10T00:06:46;32.97;;;17.92;;
35877;SDS011;21982;49.804;24.072;2022-12-10T00:09:13;33.13;;;19.77;;
35877;SDS011;21982;49.804;24.072;2022-12-10T00:11:41;34.40;;;18.65;;
35877;SDS011;21982;49.804;24.072;2022-12-10T00:14:07;36.45;;;20.85;;
35877;SDS011;21982;49.804;24.072;2022-12-10T00:16:34;33.53;;;18.00;;
35877;SDS011;21982;49.804;24.072;2022-12-10T00:19:00;35.72;;;19.38;;
35877;SDS011;21982;49.804;24.072;2022-12-10T00:21:28;32.63;;;19.05;;
35877;SDS011;21982;49.804;24.072;2022-12-10T00:23:55;37.35;;;18.73;;
35877;SDS011;21982;49.804;24.072;2022-12-10T00:26:26;38.20;;;18.88;;
35877;SDS011;21982;49.804;24.072;2022-12-10T00:28:54;32.65;;;18.65;;
35877;SDS011;21982;49.804;24.072;2022-12-10T00:31:24;33.30;;;17.10;;
35877;SDS011;21982;49.804;24.072;2022-12-10T00:33:53;31.38;;;16.80;;
35877;SDS011;21982;49.804;24.072;2022-12-10T00:36:27;30.95;;;17.55;;
35877;SDS011;21982;49.804;24.072;2022-12-10T00:38:55;32.58;;;17.80;;
35877;SDS011;21982;49.804;24.072;2022-12-10T00:41:21;32.88;;;18.48;;
35877;SDS011;21982;49.804;24.072;2022-12-10T00:43:46;32.33;;;18.60;;
35877;SDS011;21982;49.804;24.072;2022-12-10T00:46:12;31.30;;;17.75;;
35877;SDS011;21982;49.804;24.072;2022-12-10T00:48:40;34.95;;;18.05;;
35877;SDS011;21982;49.804;24.072;2022-12-10T00:51:10;34.65;;;18.95;;
35877;SDS011;21982;49.804;24.072;2022-12-10T00:53:44;34.75;;;19.10;;
35877;SDS011;21982;49.804;24.072;2022-12-10T00:56:11;33.03;;;18.02;;
35877;SDS011;21982;49.804;24.072;2022-12-10T00:58:38;30.33;;;18.13;;
35877;SDS011;21982;49.804;24.072;2022-12-10T01:01:13;29.80;;;17.35;;
35877;SDS011;21982;49.804;24.072;2022-12-10T01:03:46;28.33;;;15.88;;
35877;SDS011;21982;49.804;24.072;2022-12-10T01:08:41;29.98;;;17.45;;
35877;SDS011;21982;49.804;24.072;2022-12-10T01:11:07;32.78;;;17.92;;
35877;SDS011;21982;49.804;24.072;2022-12-10T01:13:34;31.80;;;16.92;;
35877;SDS011;21982;49.804;24.072;2022-12-10T01:16:03;31.60;;;16.73;;
35877;SDS011;21982;49.804;24.072;2022-12-10T01:18:30;33.28;;;17.63;;
35877;SDS011;21982;49.804;24.072;2022-12-10T01:21:03;32.85;;;17.77;;
35877;SDS011;21982;49.804;24.072;2022-12-10T01:23:31;34.05;;;17.05;;
35877;SDS011;21982;49.804;24.072;2022-12-10T01:26:02;40.33;;;23.58;;
35877;SDS011;21982;49.804;24.072;2022-12-10T01:28:30;35.83;;;20.02;;
35877;SDS011;21982;49.804;24.072;2022-12-10T01:30:59;39.97;;;21.15;;
35877;SDS011;21982;49.804;24.072;2022-12-10T01:33:26;35.65;;;21.27;;
35877;SDS011;21982;49.804;24.072;2022-12-10T01:35:51;32.78;;;19.27;;
35877;SDS011;21982;49.804;24.072;2022-12-10T01:38:17;30.10;;;16.55;;
35877;SDS011;21982;49.804;24.072;2022-12-10T01:40:42;29.83;;;16.55;;
35877;SDS011;21982;49.804;24.072;2022-12-10T01:43:11;31.20;;;17.90;;
35877;SDS011;21982;49.804;24.072;2022-12-10T01:45:38;33.33;;;17.67;;
35877;SDS011;21982;49.804;24.072;2022-12-10T01:48:04;36.47;;;22.63;;
35877;SDS011;21982;49.804;24.072;2022-12-10T01:50:29;33.05;;;18.45;;
35877;SDS011;21982;49.804;24.072;2022-12-10T01:52:54;30.48;;;17.73;;
35877;SDS011;21982;49.804;24.072;2022-12-10T01:55:40;31.65;;;18.48;;
35877;SDS011;21982;49.804;24.072;2022-12-10T01:58:08;32.08;;;17.92;;
35877;SDS011;21982;49.804;24.072;2022-12-10T02:00:34;31.60;;;17.77;;
35877;SDS011;21982;49.804;24.072;2022-12-10T02:03:17;30.42;;;16.38;;
35877;SDS011;21982;49.804;24.072;2022-12-10T02:08:19;28.55;;;13.40;;
35877;SDS011;21982;49.804;24.072;2022-12-10T02:11:01;33.42;;;15.20;;
35877;SDS011;21982;49.804;24.072;2022-12-10T02:13:31;28.83;;;16.10;;
35877;SDS011;21982;49.804;24.072;2022-12-10T02:16:09;30.05;;;15.32;;
35877;SDS011;21982;49.804;24.072;2022-12-10T02:19:00;26.77;;;15.13;;
35877;SDS011;21982;49.804;24.072;2022-12-10T02:21:38;28.88;;;15.95;;
35877;SDS011;21982;49.804;24.072;2022-12-10T02:24:11;28.00;;;16.42;;
35877;SDS011;21982;49.804;24.072;2022-12-10T02:29:15;32.72;;;15.93;;
35877;SDS011;21982;49.804;24.072;2022-12-10T02:31:44;34.15;;;17.48;;
35877;SDS011;21982;49.804;24.072;2022-12-10T02:34:13;27.00;;;15.57;;
35877;SDS011;21982;49.804;24.072;2022-12-10T02:36:42;31.95;;;16.17;;
35877;SDS011;21982;49.804;24.072;2022-12-10T02:39:12;30.20;;;15.38;;
35877;SDS011;21982;49.804;24.072;2022-12-10T02:41:43;30.85;;;15.73;;
35877;SDS011;21982;49.804;24.072;2022-12-10T02:44:13;31.45;;;16.45;;
35877;SDS011;21982;49.804;24.072;2022-12-10T02:46:41;31.33;;;16.00;;
35877;SDS011;21982;49.804;24.072;2022-12-10T02:49:09;29.15;;;17.08;;
35877;SDS011;21982;49.804;24.072;2022-12-10T02:51:39;31.30;;;15.98;;
35877;SDS011;21982;49.804;24.072;2022-12-10T02:54:06;33.63;;;18.20;;
35877;SDS011;21982;49.804;24.072;2022-12-10T02:56:54;31.80;;;15.88;;
35877;SDS011;21982;49.804;24.072;2022-12-10T03:02:07;27.00;;;14.13;;
35877;SDS011;21982;49.804;24.072;2022-12-10T03:05:14;30.10;;;16.17;;
35877;SDS011;21982;49.804;24.072;2022-12-10T03:07:48;27.73;;;14.18;;
35877;SDS011;21982;49.804;24.072;2022-12-10T03:10:23;30.08;;;14.68;;
35877;SDS011;21982;49.804;24.072;2022-12-10T03:12:56;29.35;;;15.00;;
35877;SDS011;21982;49.804;24.072;2022-12-10T03:15:25;30.48;;;15.15;;
35877;SDS011;21982;49.804;24.072;2022-12-10T03:17:53;28.35;;;15.15;;
35877;SDS011;21982;49.804;24.072;2022-12-10T03:20:20;22.42;;;12.75;;
35877;SDS011;21982;49.804;24.072;2022-12-10T03:22:48;26.70;;;13.45;;
35877;SDS011;21982;49.804;24.072;2022-12-10T03:25:15;24.10;;;14.43;;
35877;SDS011;21982;49.804;24.072;2022-12-10T05:21:05;33.85;;;14.73;;
35877;SDS011;21982;49.804;24.072;2022-12-10T05:23:32;35.70;;;15.38;;
35877;SDS011;21982;49.804;24.072;2022-12-10T05:26:01;36.13;;;17.17;;
35877;SDS011;21982;49.804;24.072;2022-12-10T05:28:29;37.08;;;17.38;;
35877;SDS011;21982;49.804;24.072;2022-12-10T05:30:57;31.95;;;16.05;;
35877;SDS011;21982;49.804;24.072;2022-12-10T05:33:23;30.20;;;16.58;;
35877;SDS011;21982;49.804;24.072;2022-12-10T05:35:56;31.33;;;16.92;;
35877;SDS011;21982;49.804;24.072;2022-12-10T05:38:23;36.00;;;16.10;;
35877;SDS011;21982;49.804;24.072;2022-12-10T05:40:49;28.63;;;15.75;;
35877;SDS011;21982;49.804;24.072;2022-12-10T05:43:15;31.08;;;17.17;;
35877;SDS011;21982;49.804;24.072;2022-12-10T05:45:41;34.78;;;16.55;;
35877;SDS011;21982;49.804;24.072;2022-12-10T05:48:08;28.65;;;17.23;;
35877;SDS011;21982;49.804;24.072;2022-12-10T05:50:37;32.70;;;16.02;;
35877;SDS011;21982;49.804;24.072;2022-12-10T05:53:02;33.70;;;17.35;;
35877;SDS011;21982;49.804;24.072;2022-12-10T05:55:28;35.85;;;18.23;;
35877;SDS011;21982;49.804;24.072;2022-12-10T05:57:54;30.58;;;19.42;;
35877;SDS011;21982;49.804;24.072;2022-12-10T06:00:20;30.67;;;17.55;;
35877;SDS011;21982;49.804;24.072;2022-12-10T06:02:48;32.95;;;19.33;;
35877;SDS011;21982;49.804;24.072;2022-12-10T06:05:17;35.13;;;19.50;;
35877;SDS011;21982;49.804;24.072;2022-12-10T06:07:42;31.00;;;18.02;;
35877;SDS011;21982;49.804;24.072;2022-12-10T06:10:08;30.38;;;17.05;;
35877;SDS011;21982;49.804;24.072;2022-12-10T06:12:34;32.42;;;16.33;;
35877;SDS011;21982;49.804;24.072;2022-12-10T06:14:59;27.83;;;15.77;;
35877;SDS011;21982;49.804;24.072;2022-12-10T06:17:24;27.88;;;15.20;;
35877;SDS011;21982;49.804;24.072;2022-12-10T06:19:50;30.58;;;16.25;;
35877;SDS011;21982;49.804;24.072;2022-12-10T06:22:15;29.90;;;16.75;;
35877;SDS011;21982;49.804;24.072;2022-12-10T06:24:40;31.90;;;16.85;;
35877;SDS011;21982;49.804;24.072;2022-12-10T06:27:06;30.38;;;16.38;;
35877;SDS011;21982;49.804;24.072;2022-12-10T06:29:32;30.48;;;17.63;;
35877;SDS011;21982;49.804;24.072;2022-12-10T06:31:57;32.53;;;17.33;;
35877;SDS011;21982;49.804;24.072;2022-12-10T06:34:22;33.92;;;18.67;;
35877;SDS011;21982;49.804;24.072;2022-12-10T06:36:48;32.97;;;16.70;;
35877;SDS011;21982;49.804;24.072;2022-12-10T06:39:13;30.13;;;16.75;;
35877;SDS011;21982;49.804;24.072;2022-12-10T06:41:38;27.98;;;15.45;;
35877;SDS011;21982;49.804;24.072;2022-12-10T06:44:08;29.10;;;15.82;;
35877;SDS011;21982;49.804;24.072;2022-12-10T06:46:34;27.40;;;15.93;;
35877;SDS011;21982;49.804;24.072;2022-12-10T06:48:59;26.33;;;15.63;;
35877;SDS011;21982;49.804;24.072;2022-12-10T06:51:24;24.98;;;16.45;;
35877;SDS011;21982;49.804;24.072;2022-12-10T06:53:50;30.88;;;17.90;;
35877;SDS011;21982;49.804;24.072;2022-12-10T06:56:18;29.38;;;16.95;;
35877;SDS011;21982;49.804;24.072;2022-12-10T06:58:45;32.33;;;19.02;;
35877;SDS011;21982;49.804;24.072;2022-12-10T07:03:41;36.20;;;19.75;;
35877;SDS011;21982;49.804;24.072;2022-12-10T07:06:10;34.83;;;17.45;;
35877;SDS011;21982;49.804;24.072;2022-12-10T07:08:36;40.45;;;21.15;;
35877;SDS011;21982;49.804;24.072;2022-12-10T07:11:06;47.65;;;25.05;;
35877;SDS011;21982;49.804;24.072;2022-12-10T07:13:33;48.22;;;26.20;;
35877;SDS011;21982;49.804;24.072;2022-12-10T11:03:54;18.17;;;9.98;;
35877;SDS011;21982;49.804;24.072;2022-12-10T11:06:43;21.50;;;11.55;;
35877;SDS011;21982;49.804;24.072;2022-12-10T11:09:24;19.38;;;9.35;;
35877;SDS011;21982;49.804;24.072;2022-12-10T11:19:33;13.77;;;10.85;;
35877;SDS011;21982;49.804;24.072;2022-12-10T11:22:21;16.92;;;10.48;;
35877;SDS011;21982;49.804;24.072;2022-12-10T11:24:47;14.77;;;8.80;;
35877;SDS011;21982;49.804;24.072;2022-12-10T11:27:16;17.80;;;10.40;;
35877;SDS011;21982;49.804;24.072;2022-12-10T11:30:00;16.52;;;8.57;;
35877;SDS011;21982;49.804;24.072;2022-12-10T11:40:37;25.73;;;16.52;;
35877;SDS011;21982;49.804;24.072;2022-12-10T11:50:50;14.43;;;9.48;;
35877;SDS011;21982;49.804;24.072;2022-12-10T12:18:13;19.70;;;11.48;;
35877;SDS011;21982;49.804;24.072;2022-12-10T12:20:53;17.23;;;11.02;;
35877;SDS011;21982;49.804;24.072;2022-12-10T12:23:26;18.70;;;12.10;;
35877;SDS011;21982;49.804;24.072;2022-12-10T12:26:36;14.88;;;8.77;;
35877;SDS011;21982;49.804;24.072;2022-12-10T12:32:04;16.38;;;8.88;;
35877;SDS011;21982;49.804;24.072;2022-12-10T12:37:02;15.50;;;9.45;;
35877;SDS011;21982;49.804;24.072;2022-12-10T12:39:37;16.30;;;10.43;;
35877;SDS011;21982;49.804;24.072;2022-12-10T12:42:50;20.50;;;11.15;;
35877;SDS011;21982;49.804;24.072;2022-12-10T12:45:38;27.25;;;11.00;;
35877;SDS011;21982;49.804;24.072;2022-12-10T12:48:16;34.08;;;11.35;;
35877;SDS011;21982;49.804;24.072;2022-12-10T12:53:39;30.80;;;12.77;;
35877;SDS011;21982;49.804;24.072;2022-12-10T13:02:08;36.63;;;17.63;;
35877;SDS011;21982;49.804;24.072;2022-12-10T13:04:51;36.47;;;14.75;;
35877;SDS011;21982;49.804;24.072;2022-12-10T13:10:07;26.73;;;12.07;;
35877;SDS011;21982;49.804;24.072;2022-12-10T13:15:46;22.92;;;11.00;;
35877;SDS011;21982;49.804;24.072;2022-12-10T13:36:09;18.05;;;10.18;;
35877;SDS011;21982;49.804;24.072;2022-12-10T13:38:39;24.67;;;10.75;;
35877;SDS011;21982;49.804;24.072;2022-12-10T13:41:06;25.98;;;12.18;;
35877;SDS011;21982;49.804;24.072;2022-12-10T13:43:51;17.80;;;9.30;;
35877;SDS011;21982;49.804;24.072;2022-12-10T13:52:15;16.23;;;9.40;;
35877;SDS011;21982;49.804;24.072;2022-12-10T14:00:22;26.95;;;8.85;;
35877;SDS011;21982;49.804;24.072;2022-12-10T14:03:07;14.80;;;7.78;;
35877;SDS011;21982;49.804;24.072;2022-12-10T14:08:29;37.72;;;12.35;;
35877;SDS011;21982;49.804;24.072;2022-12-10T14:10:58;24.83;;;11.32;;
35877;SDS011;21982;49.804;24.072;2022-12-10T14:13:30;25.83;;;10.15;;
35877;SDS011;21982;49.804;24.072;2022-12-10T14:16:01;32.75;;;10.60;;
35877;SDS011;21982;49.804;24.072;2022-12-10T14:18:28;52.22;;;11.40;;
35877;SDS011;21982;49.804;24.072;2022-12-10T14:20:55;45.40;;;11.10;;
35877;SDS011;21982;49.804;24.072;2022-12-10T14:23:28;38.42;;;10.60;;
35877;SDS011;21982;49.804;24.072;2022-12-10T14:26:18;20.17;;;11.40;;
35877;SDS011;21982;49.804;24.072;2022-12-10T14:29:22;38.22;;;11.07;;
35877;SDS011;21982;49.804;24.072;2022-12-10T14:31:48;60.58;;;13.80;;
35877;SDS011;21982;49.804;24.072;2022-12-10T14:34:16;37.50;;;10.45;;
35877;SDS011;21982;49.804;24.072;2022-12-10T14:36:46;25.27;;;10.85;;
35877;SDS011;21982;49.804;24.072;2022-12-10T14:39:14;36.38;;;11.73;;
35877;SDS011;21982;49.804;24.072;2022-12-10T14:41:42;30.40;;;9.25;;
35877;SDS011;21982;49.804;24.072;2022-12-10T14:44:09;19.17;;;9.63;;
35877;SDS011;21982;49.804;24.072;2022-12-10T14:46:38;16.38;;;8.20;;
35877;SDS011;21982;49.804;24.072;2022-12-10T14:49:06;17.67;;;8.05;;
35877;SDS011;21982;49.804;24.072;2022-12-10T14:51:33;14.93;;;8.77;;
35877;SDS011;21982;49.804;24.072;2022-12-10T14:54:01;14.18;;;8.20;;
35877;SDS011;21982;49.804;24.072;2022-12-10T14:56:29;13.63;;;7.80;;
35877;SDS011;21982;49.804;24.072;2022-12-10T14:59:05;19.10;;;9.02;;
35877;SDS011;21982;49.804;24.072;2022-12-10T15:01:38;34.78;;;11.90;;
35877;SDS011;21982;49.804;24.072;2022-12-10T15:04:11;50.20;;;17.63;;
35877;SDS011;21982;49.804;24.072;2022-12-10T15:06:39;32.35;;;12.95;;
35877;SDS011;21982;49.804;24.072;2022-12-10T20:48:11;8.83;;;4.50;;
35877;SDS011;21982;49.804;24.072;2022-12-10T20:50:36;9.87;;;4.87;;
35877;SDS011;21982;49.804;24.072;2022-12-10T20:53:04;8.67;;;4.73;;
35877;SDS011;21982;49.804;24.072;2022-12-10T20:55:34;15.02;;;5.72;;
35877;SDS011;21982;49.804;24.072;2022-12-10T20:58:09;12.00;;;4.28;;
35877;SDS011;21982;49.804;24.072;2022-12-10T21:00:38;9.80;;;4.77;;
35877;SDS011;21982;49.804;24.072;2022-12-10T21:03:06;9.10;;;4.35;;
35877;SDS011;21982;49.804;24.072;2022-12-10T21:05:32;10.82;;;5.10;;
35877;SDS011;21982;49.804;24.072;2022-12-10T21:07:57;11.23;;;5.50;;
35877;SDS011;21982;49.804;24.072;2022-12-10T21:10:22;10.85;;;5.22;;
35877;SDS011;21982;49.804;24.072;2022-12-10T21:13:09;9.90;;;5.40;;
35877;SDS011;21982;49.804;24.072;2022-12-10T21:15:38;9.67;;;5.80;;
35877;SDS011;21982;49.804;24.072;2022-12-10T21:18:03;9.45;;;5.25;;
35877;SDS011;21982;49.804;24.072;2022-12-10T21:20:29;10.82;;;6.07;;
35877;SDS011;21982;49.804;24.072;2022-12-10T21:22:54;9.85;;;4.93;;
35877;SDS011;21982;49.804;24.072;2022-12-10T21:25:20;11.05;;;5.40;;
35877;SDS011;21982;49.804;24.072;2022-12-10T21:27:45;9.23;;;4.15;;
35877;SDS011;21982;49.804;24.072;2022-12-10T21:30:11;9.60;;;4.65;;
35877;SDS011;21982;49.804;24.072;2022-12-10T21:32:37;9.00;;;3.80;;
35877;SDS011;21982;49.804;24.072;2022-12-10T21:35:03;15.02;;;4.63;;
35877;SDS011;21982;49.804;24.072;2022-12-10T21:37:28;9.75;;;4.35;;
35877;SDS011;21982;49.804;24.072;2022-12-10T21:39:54;8.57;;;4.80;;
35877;SDS011;21982;49.804;24.072;2022-12-10T21:42:21;11.23;;;4.70;;
